createdAt,value
2018-03-17T00:01:05.510Z,18.67
2018-03-17T00:03:33.749Z,18.47
2018-03-17T00:06:02.009Z,16.57
2018-03-17T00:08:30.316Z,18.93
2018-03-17T00:10:58.554Z,18.87
2018-03-17T00:13:28.852Z,19.43
2018-03-17T00:15:57.126Z,20.67
2018-03-17T00:18:25.378Z,18.83
2018-03-17T00:20:53.640Z,19.50
2018-03-17T00:23:23.698Z,19.20
2018-03-17T00:25:51.949Z,20.80
2018-03-17T00:28:20.212Z,20.57
2018-03-17T00:30:48.538Z,21.40
2018-03-17T00:33:16.768Z,21.00
2018-03-17T00:35:45.010Z,21.07
2018-03-17T00:38:13.291Z,20.93
2018-03-17T00:40:42.306Z,18.40
2018-03-17T00:43:10.558Z,20.33
2018-03-17T00:45:39.394Z,19.20
2018-03-17T00:48:07.730Z,19.50
2018-03-17T00:50:36.747Z,20.53
2018-03-17T00:53:05.029Z,19.00
2018-03-17T00:55:33.270Z,21.50
2018-03-17T00:58:01.517Z,19.53
2018-03-17T01:00:29.802Z,21.30
2018-03-17T01:02:58.056Z,20.57
2018-03-17T01:05:26.306Z,20.00
2018-03-17T01:07:54.818Z,20.73
2018-03-17T01:10:23.057Z,19.73
2018-03-17T01:12:51.318Z,21.43
2018-03-17T01:15:19.598Z,20.40
2018-03-17T01:17:48.622Z,21.70
2018-03-17T01:20:16.867Z,21.60
2018-03-17T01:22:45.142Z,22.70
2018-03-17T01:25:13.559Z,19.73
2018-03-17T01:27:41.797Z,22.10
2018-03-17T01:30:11.246Z,23.20
2018-03-17T01:32:39.501Z,17.10
2018-03-17T01:35:07.750Z,20.77
2018-03-17T01:37:36.027Z,19.43
2018-03-17T01:40:04.280Z,21.43
2018-03-17T01:42:32.658Z,19.90
2018-03-17T01:45:00.935Z,19.43
2018-03-17T01:47:29.189Z,19.10
2018-03-17T01:49:57.437Z,18.30
2018-03-17T01:52:26.251Z,20.93
2018-03-17T01:54:54.502Z,19.47
2018-03-17T01:57:22.746Z,20.83
2018-03-17T01:59:51.022Z,18.50
2018-03-17T02:02:20.187Z,20.23
2018-03-17T02:04:48.422Z,18.70
2018-03-17T02:07:16.698Z,18.53
2018-03-17T02:09:45.171Z,17.90
2018-03-17T02:12:14.186Z,18.87
2018-03-17T02:14:42.884Z,17.13
2018-03-17T02:17:11.134Z,17.00
2018-03-17T02:19:39.378Z,16.50
2018-03-17T02:22:07.646Z,16.90
2018-03-17T02:24:35.889Z,17.00
2018-03-17T02:27:04.408Z,18.97
2018-03-17T02:29:32.677Z,18.60
2018-03-17T02:32:00.924Z,17.90
2018-03-17T02:34:29.172Z,18.70
2018-03-17T02:36:57.993Z,18.63
2018-03-17T02:39:26.330Z,18.17
2018-03-17T02:41:55.529Z,19.37
2018-03-17T02:44:23.794Z,18.70
2018-03-17T02:46:52.054Z,19.53
2018-03-17T02:49:20.310Z,20.00
2018-03-17T02:51:48.579Z,19.57
2018-03-17T02:54:16.826Z,19.70
2018-03-17T02:56:45.074Z,18.97
2018-03-17T02:59:13.759Z,18.37
2018-03-17T03:01:42.759Z,20.23
2018-03-17T03:04:11.010Z,18.43
2018-03-17T03:06:39.296Z,17.70
2018-03-17T03:09:07.542Z,19.23
2018-03-17T03:11:35.795Z,18.73
2018-03-17T03:14:04.063Z,19.30
2018-03-17T03:16:32.318Z,17.67
2018-03-17T03:19:01.331Z,18.33
2018-03-17T03:21:29.766Z,17.97
2018-03-17T03:23:58.017Z,17.50
2018-03-17T03:26:26.282Z,18.20
2018-03-17T03:28:55.134Z,17.20
2018-03-17T03:31:24.147Z,17.03
2018-03-17T03:33:52.408Z,19.03
2018-03-17T03:36:20.681Z,19.57
2018-03-17T03:38:48.930Z,18.17
2018-03-17T03:41:17.188Z,19.53
2018-03-17T03:43:45.771Z,18.83
2018-03-17T03:46:14.114Z,17.93
2018-03-17T03:48:42.370Z,19.20
2018-03-17T03:51:10.638Z,18.60
2018-03-17T03:53:38.890Z,18.00
2018-03-17T03:56:07.142Z,19.67
2018-03-17T03:58:35.427Z,18.47
2018-03-17T04:01:03.674Z,13.90
2018-03-17T04:03:31.917Z,15.00
2018-03-17T04:06:00.714Z,15.40
2018-03-17T04:08:28.949Z,15.60
2018-03-17T04:10:57.194Z,17.20
2018-03-17T04:13:25.466Z,15.83
2018-03-17T04:15:53.723Z,14.87
2018-03-17T04:18:22.729Z,14.70
2018-03-17T04:20:51.772Z,16.53
2018-03-17T04:23:20.018Z,15.47
2018-03-17T04:25:48.275Z,16.40
2018-03-17T04:28:16.905Z,15.27
2018-03-17T04:30:45.542Z,14.73
2018-03-17T04:33:14.558Z,14.27
2018-03-17T04:35:42.838Z,16.13
2018-03-17T04:38:11.088Z,14.80
2018-03-17T04:40:39.329Z,11.33
2018-03-17T04:43:07.606Z,13.93
2018-03-17T04:45:35.849Z,13.53
2018-03-17T04:48:04.106Z,13.60
2018-03-17T04:50:32.932Z,13.33
2018-03-17T04:53:01.181Z,13.80
2018-03-17T04:55:29.417Z,14.73
2018-03-17T04:57:57.698Z,14.67
2018-03-17T05:00:25.950Z,14.23
2018-03-17T05:02:54.194Z,13.53
2018-03-17T05:05:22.467Z,12.97
2018-03-17T05:07:50.734Z,14.50
2018-03-17T05:10:18.974Z,15.00
2018-03-17T05:12:47.506Z,11.27
2018-03-17T05:15:15.745Z,14.57
2018-03-17T05:17:44.759Z,17.40
2018-03-17T05:20:13.796Z,13.57
2018-03-17T05:22:42.039Z,12.80
2018-03-17T05:25:10.290Z,13.80
2018-03-17T05:27:38.569Z,12.60
2018-03-17T05:30:07.578Z,14.90
2018-03-17T05:32:37.174Z,12.40
2018-03-17T05:35:06.877Z,16.43
2018-03-17T05:37:35.130Z,14.30
2018-03-17T05:40:03.384Z,12.63
2018-03-17T05:42:31.661Z,14.43
2018-03-17T05:44:59.910Z,14.23
2018-03-17T05:47:28.150Z,12.50
2018-03-17T05:49:56.426Z,13.40
2018-03-17T05:52:24.671Z,13.00
2018-03-17T05:54:52.917Z,11.73
2018-03-17T05:57:21.482Z,12.13
2018-03-17T05:59:49.731Z,11.60
2018-03-17T06:02:17.985Z,11.70
2018-03-17T06:04:46.250Z,11.50
2018-03-17T06:07:14.494Z,12.00
2018-03-17T06:09:42.751Z,10.63
2018-03-17T06:12:11.039Z,11.03
2018-03-17T06:14:39.287Z,10.63
2018-03-17T06:17:07.544Z,10.93
2018-03-17T06:19:36.134Z,11.10
2018-03-17T06:22:04.374Z,12.30
2018-03-17T06:24:32.626Z,12.40
2018-03-17T06:27:00.902Z,9.50
2018-03-17T06:29:29.922Z,10.70
2018-03-17T06:31:58.174Z,10.47
2018-03-17T06:34:26.686Z,10.80
2018-03-17T06:36:54.934Z,10.70
2018-03-17T06:39:23.176Z,9.70
2018-03-17T06:41:52.119Z,10.70
2018-03-17T06:44:20.446Z,9.33
2018-03-17T06:46:48.686Z,8.43
2018-03-17T06:49:16.962Z,9.03
2018-03-17T06:51:45.198Z,8.10
2018-03-17T06:54:13.441Z,9.10
2018-03-17T06:56:41.702Z,9.13
2018-03-17T06:59:09.938Z,7.60
2018-03-17T07:01:38.178Z,8.20
2018-03-17T07:04:06.941Z,7.47
2018-03-17T07:06:35.174Z,8.83
2018-03-17T07:09:03.411Z,8.27
2018-03-17T07:11:31.670Z,8.97
2018-03-17T07:13:59.910Z,9.23
2018-03-17T07:16:28.149Z,7.67
2018-03-17T07:18:56.419Z,8.00
2018-03-17T07:21:24.659Z,8.70
2018-03-17T07:23:52.911Z,7.77
2018-03-17T07:26:21.435Z,8.30
2018-03-17T07:28:49.687Z,8.20
2018-03-17T07:31:17.914Z,8.10
2018-03-17T07:33:46.178Z,8.40
2018-03-17T07:36:15.214Z,7.70
2018-03-17T07:38:44.215Z,8.30
2018-03-17T07:41:13.250Z,8.13
2018-03-17T07:43:41.483Z,7.00
2018-03-17T07:46:09.920Z,8.10
2018-03-17T07:48:38.689Z,7.33
2018-03-17T07:51:06.970Z,6.60
2018-03-17T07:53:35.208Z,6.97
2018-03-17T07:56:03.470Z,8.27
2018-03-17T07:58:32.475Z,8.40
2018-03-17T08:01:01.487Z,9.57
2018-03-17T08:03:29.838Z,8.63
2018-03-17T08:05:58.844Z,9.43
2018-03-17T08:08:27.870Z,9.00
2018-03-17T08:10:56.870Z,7.90
2018-03-17T08:13:25.108Z,9.00
2018-03-17T08:15:53.353Z,7.90
2018-03-17T08:18:21.612Z,7.80
2018-03-17T08:20:49.850Z,7.70
2018-03-17T08:23:18.098Z,7.90
2018-03-17T08:25:47.127Z,9.17
2018-03-17T08:28:15.378Z,5.93
2018-03-17T08:30:43.615Z,7.10
2018-03-17T08:33:17.230Z,9.20
2018-03-17T08:35:45.458Z,9.20
2018-03-17T08:38:14.072Z,8.20
2018-03-17T08:40:42.323Z,9.70
2018-03-17T08:43:10.567Z,8.63
2018-03-17T08:45:38.811Z,8.80
2018-03-17T08:48:07.482Z,10.03
2018-03-17T08:50:35.770Z,7.73
2018-03-17T08:53:04.014Z,9.43
2018-03-17T08:55:32.728Z,7.77
2018-03-17T08:58:00.995Z,8.53
2018-03-17T09:00:29.955Z,9.53
2018-03-17T09:02:58.221Z,8.57
2018-03-17T09:05:26.460Z,9.03
2018-03-17T09:07:54.698Z,8.97
2018-03-17T09:10:22.971Z,7.80
2018-03-17T09:12:51.202Z,8.80
2018-03-17T09:15:19.449Z,10.10
2018-03-17T09:17:48.450Z,9.07
2018-03-17T09:20:16.670Z,8.70
2018-03-17T09:22:45.682Z,9.17
2018-03-17T09:25:13.962Z,7.93
2018-03-17T09:27:42.206Z,8.40
2018-03-17T09:30:11.206Z,8.20
2018-03-17T09:32:39.478Z,8.20
2018-03-17T09:35:08.485Z,9.03
2018-03-17T09:37:37.485Z,7.40
2018-03-17T09:40:06.521Z,8.60
2018-03-17T09:42:34.746Z,7.77
2018-03-17T09:45:02.988Z,7.90
2018-03-17T09:47:31.252Z,8.77
2018-03-17T09:49:59.495Z,10.17
2018-03-17T09:52:28.639Z,8.00
2018-03-17T09:54:56.898Z,7.97
2018-03-17T09:57:25.130Z,8.10
2018-03-17T09:59:54.138Z,8.07
2018-03-17T10:02:22.595Z,8.27
2018-03-17T10:04:50.878Z,9.33
2018-03-17T10:07:19.090Z,7.63
2018-03-17T10:09:47.354Z,8.93
2018-03-17T10:12:15.598Z,7.80
2018-03-17T10:14:44.042Z,7.90
2018-03-17T10:17:12.302Z,7.73
2018-03-17T10:19:40.543Z,7.93
2018-03-17T10:22:09.567Z,8.10
2018-03-17T10:24:38.271Z,7.83
2018-03-17T10:27:06.563Z,9.43
2018-03-17T10:29:34.806Z,6.97
2018-03-17T10:32:03.074Z,7.43
2018-03-17T10:34:31.356Z,8.20
2018-03-17T10:36:59.592Z,7.60
2018-03-17T10:39:27.866Z,7.50
2018-03-17T10:41:56.116Z,8.10
2018-03-17T10:44:24.362Z,9.03
2018-03-17T10:46:53.053Z,8.13
2018-03-17T10:49:21.346Z,8.13
2018-03-17T10:51:49.598Z,8.70
2018-03-17T10:54:17.880Z,7.90
2018-03-17T10:56:46.222Z,7.80
2018-03-17T10:59:15.238Z,7.83
2018-03-17T11:01:43.504Z,8.00
2018-03-17T11:04:11.788Z,7.80
2018-03-17T11:06:40.027Z,7.60
2018-03-17T11:09:08.596Z,9.03
2018-03-17T11:11:36.864Z,7.00
2018-03-17T11:14:05.142Z,8.30
2018-03-17T11:16:33.549Z,7.80
2018-03-17T11:19:01.802Z,7.87
2018-03-17T11:21:30.045Z,8.93
2018-03-17T11:23:58.314Z,10.60
2018-03-17T11:26:26.565Z,6.97
2018-03-17T11:28:54.814Z,9.20
2018-03-17T11:31:24.494Z,7.70
2018-03-17T11:33:52.769Z,8.10
2018-03-17T11:36:20.974Z,7.37
2018-03-17T11:38:49.237Z,9.27
2018-03-17T11:41:17.658Z,8.90
2018-03-17T11:43:46.686Z,9.63
2018-03-17T11:46:15.021Z,9.63
2018-03-17T11:48:44.038Z,9.03
2018-03-17T11:51:13.042Z,9.57
2018-03-17T11:53:41.746Z,9.33
2018-03-17T11:56:10.090Z,9.50
2018-03-17T11:58:39.106Z,11.13
2018-03-17T12:01:07.378Z,10.03
2018-03-17T12:03:35.622Z,8.37
2018-03-17T12:06:03.871Z,10.10
2018-03-17T12:08:32.147Z,9.80
2018-03-17T12:11:00.386Z,10.27
2018-03-17T12:13:28.786Z,9.27
2018-03-17T12:15:59.853Z,9.20
2018-03-17T12:18:28.098Z,9.20
2018-03-17T12:20:56.343Z,9.00
2018-03-17T12:23:25.374Z,9.10
2018-03-17T12:25:53.697Z,10.10
2018-03-17T12:28:22.059Z,9.33
2018-03-17T12:30:50.486Z,10.43
2018-03-17T12:33:18.733Z,9.40
2018-03-17T12:35:47.204Z,9.40
2018-03-17T12:38:15.677Z,9.93
2018-03-17T12:40:43.922Z,10.83
2018-03-17T12:43:12.334Z,9.30
2018-03-17T12:45:40.610Z,9.70
2018-03-17T12:48:08.859Z,10.63
2018-03-17T12:50:37.230Z,9.87
2018-03-17T12:53:05.509Z,10.70
2018-03-17T12:55:33.782Z,10.30
2018-03-17T12:58:03.219Z,10.17
2018-03-17T13:00:31.685Z,10.03
2018-03-17T13:03:00.065Z,9.90
2018-03-17T13:05:28.663Z,11.03
2018-03-17T13:07:56.954Z,10.70
2018-03-17T13:10:25.310Z,9.27
2018-03-17T13:12:53.538Z,9.80
2018-03-17T13:15:21.815Z,10.43
2018-03-17T13:17:50.259Z,10.77
2018-03-17T13:20:18.630Z,10.33
2018-03-17T13:22:59.100Z,11.30
2018-03-17T13:25:27.380Z,10.60
2018-03-17T13:28:07.722Z,9.30
2018-03-17T13:30:35.978Z,11.80
2018-03-17T13:33:04.410Z,11.30
2018-03-17T13:35:44.494Z,9.50
2018-03-17T13:38:12.738Z,10.30
2018-03-17T13:40:42.133Z,10.63
2018-03-17T13:43:11.107Z,10.90
2018-03-17T13:45:39.819Z,10.97
2018-03-17T13:48:08.294Z,11.50
2018-03-17T13:50:36.567Z,11.17
2018-03-17T13:53:05.034Z,10.53
2018-03-17T13:55:33.283Z,11.60
2018-03-17T13:58:01.549Z,10.93
2018-03-17T14:00:29.903Z,9.93
2018-03-17T14:02:58.914Z,9.83
2018-03-17T14:05:27.227Z,10.67
2018-03-17T14:07:55.494Z,10.80
2018-03-17T14:10:23.730Z,10.53
2018-03-17T14:12:52.780Z,11.00
2018-03-17T14:15:21.119Z,10.23
2018-03-17T14:17:49.447Z,8.70
2018-03-17T14:20:17.726Z,11.10
2018-03-17T14:22:46.232Z,10.27
2018-03-17T14:25:14.464Z,11.33
2018-03-17T14:27:42.787Z,12.30
2018-03-17T14:30:11.048Z,9.80
2018-03-17T14:32:39.291Z,10.33
2018-03-17T14:35:07.569Z,10.60
2018-03-17T14:37:35.883Z,10.90
2018-03-17T14:40:04.122Z,10.87
2018-03-17T14:42:32.511Z,11.80
2018-03-17T14:45:00.890Z,11.13
2018-03-17T14:47:29.143Z,11.20
2018-03-17T14:49:57.540Z,10.73
2018-03-17T14:52:26.070Z,12.07
2018-03-17T14:54:54.518Z,11.03
2018-03-17T14:57:24.197Z,11.87
2018-03-17T14:59:52.431Z,9.87
2018-03-17T15:02:20.714Z,12.03
2018-03-17T15:04:48.987Z,11.37
2018-03-17T15:07:18.018Z,10.70
2018-03-17T15:09:47.454Z,10.80
2018-03-17T15:12:15.791Z,9.03
2018-03-17T15:14:44.026Z,12.13
2018-03-17T15:17:12.511Z,11.07
2018-03-17T15:19:41.545Z,11.60
2018-03-17T15:22:09.799Z,11.30
2018-03-17T15:24:38.958Z,11.50
2018-03-17T15:27:07.238Z,10.67
2018-03-17T15:29:35.519Z,7.50
2018-03-17T15:32:03.770Z,11.23
2018-03-17T15:34:33.593Z,10.07
2018-03-17T15:37:02.826Z,12.03
2018-03-17T15:39:31.990Z,11.10
2018-03-17T15:42:00.302Z,12.63
2018-03-17T15:44:28.581Z,11.60
2018-03-17T15:46:58.163Z,12.60
2018-03-17T15:49:26.594Z,11.40
2018-03-17T15:51:56.782Z,10.40
2018-03-17T15:54:25.364Z,11.57
2018-03-17T15:56:53.894Z,11.20
2018-03-17T15:59:22.139Z,8.03
2018-03-17T16:01:50.591Z,10.57
2018-03-17T16:04:18.998Z,10.03
2018-03-17T16:06:48.018Z,10.90
2018-03-17T16:09:16.336Z,9.03
2018-03-17T16:11:44.916Z,10.53
2018-03-17T16:14:13.154Z,11.17
2018-03-17T16:16:41.478Z,12.27
2018-03-17T16:19:10.054Z,9.63
2018-03-17T16:21:39.660Z,11.53
2018-03-17T16:24:08.463Z,10.80
2018-03-17T16:26:36.792Z,10.50
2018-03-17T16:29:05.038Z,11.53
2018-03-17T16:31:33.279Z,11.60
2018-03-17T16:34:01.702Z,10.90
2018-03-17T16:36:31.894Z,9.93
2018-03-17T16:39:00.283Z,11.30
2018-03-17T16:41:28.722Z,10.33
2018-03-17T16:43:57.088Z,10.80
2018-03-17T16:46:25.962Z,10.77
2018-03-17T16:48:54.230Z,11.30
2018-03-17T16:51:22.482Z,10.67
2018-03-17T16:53:51.774Z,11.10
2018-03-17T16:56:20.042Z,10.03
2018-03-17T16:58:48.282Z,11.57
2018-03-17T17:01:16.638Z,11.20
2018-03-17T17:03:45.726Z,10.40
2018-03-17T17:06:13.979Z,9.27
2018-03-17T17:08:42.355Z,10.53
2018-03-17T17:11:10.799Z,8.27
2018-03-17T17:13:39.318Z,10.87
2018-03-17T17:16:07.567Z,9.03
2018-03-17T17:18:36.917Z,10.10
2018-03-17T17:21:05.382Z,10.53
2018-03-17T17:23:33.629Z,8.67
2018-03-17T17:26:02.036Z,10.40
2018-03-17T17:28:30.627Z,10.07
2018-03-17T17:30:59.195Z,11.40
2018-03-17T17:33:27.723Z,11.77
2018-03-17T17:35:56.739Z,10.00
2018-03-17T17:38:25.063Z,10.67
2018-03-17T17:40:53.494Z,11.17
2018-03-17T17:43:21.737Z,7.97
2018-03-17T17:45:50.290Z,8.13
2018-03-17T17:48:18.971Z,10.03
2018-03-17T17:50:47.261Z,8.80
2018-03-17T17:53:17.598Z,9.67
2018-03-17T17:55:46.246Z,11.23
2018-03-17T17:58:14.510Z,11.50
2018-03-17T18:00:42.927Z,9.80
2018-03-17T18:03:11.331Z,10.83
2018-03-17T18:05:40.338Z,9.40
2018-03-17T18:08:09.350Z,9.60
2018-03-17T18:10:37.742Z,9.90
2018-03-17T18:13:07.475Z,10.23
2018-03-17T18:15:36.950Z,11.30
2018-03-17T18:18:05.228Z,9.80
2018-03-17T18:20:33.651Z,10.60
2018-03-17T18:23:02.027Z,10.30
2018-03-17T18:25:30.433Z,11.00
2018-03-17T18:27:59.443Z,12.30
2018-03-17T18:30:28.278Z,11.63
2018-03-17T18:32:58.007Z,12.10
2018-03-17T18:35:26.382Z,11.43
2018-03-17T18:37:54.785Z,10.53
2018-03-17T18:40:23.814Z,11.33
2018-03-17T18:42:54.901Z,10.63
2018-03-17T18:45:23.299Z,8.47
2018-03-17T18:47:51.682Z,10.40
2018-03-17T18:50:20.688Z,9.77
2018-03-17T18:52:49.706Z,12.10
2018-03-17T18:55:19.327Z,9.03
2018-03-17T18:57:47.626Z,10.50
2018-03-17T19:00:16.026Z,8.90
2018-03-17T19:02:44.616Z,11.10
2018-03-17T19:05:12.830Z,10.70
2018-03-17T19:07:41.142Z,11.93
2018-03-17T19:10:09.440Z,10.77
2018-03-17T19:12:37.683Z,11.40
2018-03-17T19:15:08.127Z,11.30
2018-03-17T19:17:36.687Z,11.17
2018-03-17T19:20:06.123Z,10.40
2018-03-17T19:22:34.506Z,10.70
2018-03-17T19:25:02.922Z,11.63
2018-03-17T19:27:31.162Z,9.00
2018-03-17T19:29:59.634Z,8.80
2018-03-17T19:32:28.036Z,11.97
2018-03-17T19:34:57.042Z,8.73
2018-03-17T19:37:26.054Z,11.33
2018-03-17T19:39:54.478Z,11.53
2018-03-17T19:42:22.754Z,11.10
2018-03-17T19:44:51.006Z,11.10
2018-03-17T19:47:19.274Z,11.93
2018-03-17T19:49:47.587Z,11.67
2018-03-17T19:52:16.145Z,8.87
2018-03-17T19:54:44.476Z,11.13
2018-03-17T19:57:12.726Z,12.27
2018-03-17T19:59:44.202Z,12.10
2018-03-17T20:02:12.938Z,11.40
2018-03-17T20:04:43.397Z,11.97
2018-03-17T20:07:16.731Z,11.80
2018-03-17T20:09:44.986Z,10.83
2018-03-17T20:12:13.442Z,11.43
2018-03-17T20:14:41.854Z,12.30
2018-03-17T20:17:10.967Z,11.57
2018-03-17T20:19:40.445Z,10.73
2018-03-17T20:22:08.903Z,11.67
2018-03-17T20:24:37.929Z,11.10
2018-03-17T20:27:06.175Z,9.20
2018-03-17T20:29:35.510Z,11.47
2018-03-17T20:32:05.699Z,11.73
2018-03-17T20:34:35.990Z,11.63
2018-03-17T20:37:05.468Z,11.97
2018-03-17T20:39:33.959Z,13.67
2018-03-17T20:42:04.458Z,12.90
2018-03-17T20:44:32.836Z,12.80
2018-03-17T20:47:01.390Z,13.20
2018-03-17T20:49:31.754Z,11.90
2018-03-17T20:52:00.786Z,13.00
2018-03-17T20:54:30.638Z,12.77
2018-03-17T20:56:59.038Z,9.57
2018-03-17T20:59:28.050Z,13.27
2018-03-17T21:01:57.418Z,12.20
2018-03-17T21:04:26.994Z,13.30
2018-03-17T21:06:55.304Z,12.00
2018-03-17T21:09:23.677Z,11.83
2018-03-17T21:11:52.077Z,13.50
2018-03-17T21:14:21.102Z,11.40
2018-03-17T21:16:49.442Z,12.20
2018-03-17T21:19:19.094Z,10.60
2018-03-17T21:21:47.406Z,11.73
2018-03-17T21:24:15.794Z,12.10
2018-03-17T21:26:44.294Z,11.27
2018-03-17T21:29:13.474Z,13.90
2018-03-17T21:31:41.858Z,14.03
2018-03-17T21:34:10.263Z,13.43
2018-03-17T21:36:39.283Z,11.20
2018-03-17T21:39:09.931Z,14.23
2018-03-17T21:41:38.818Z,10.30
2018-03-17T21:44:09.286Z,12.97
2018-03-17T21:46:37.678Z,12.77
2018-03-17T21:49:07.014Z,13.53
2018-03-17T21:51:35.338Z,12.33
2018-03-17T21:54:03.716Z,10.43
2018-03-17T21:56:32.130Z,12.50
2018-03-17T21:59:01.142Z,12.80
2018-03-17T22:01:31.622Z,13.37
2018-03-17T22:04:00.030Z,13.23
2018-03-17T22:06:29.081Z,13.70
2018-03-17T22:08:57.371Z,12.80
2018-03-17T22:11:25.863Z,13.33
2018-03-17T22:13:55.246Z,14.17
2018-03-17T22:16:23.486Z,13.70
2018-03-17T22:18:55.839Z,13.90
2018-03-17T22:21:24.992Z,14.03
2018-03-17T22:23:53.234Z,13.30
2018-03-17T22:26:21.579Z,14.27
2018-03-17T22:28:50.614Z,13.17
2018-03-17T22:31:21.083Z,11.20
2018-03-17T22:33:49.525Z,11.27
2018-03-17T22:36:18.146Z,12.57
2018-03-17T22:38:46.522Z,13.73
2018-03-17T22:41:14.990Z,13.70
2018-03-17T22:43:43.296Z,11.37
2018-03-17T22:46:11.658Z,11.93
2018-03-17T22:48:40.240Z,12.57
2018-03-17T22:51:09.840Z,13.90
2018-03-17T22:53:39.254Z,14.30
2018-03-17T22:56:09.250Z,11.93
2018-03-17T22:58:37.554Z,14.87
2018-03-17T23:01:05.929Z,13.60
2018-03-17T23:03:34.334Z,13.00
2018-03-17T23:06:03.350Z,14.70
2018-03-17T23:08:31.694Z,13.47
2018-03-17T23:11:00.084Z,12.30
2018-03-17T23:13:29.102Z,12.20
2018-03-17T23:15:58.350Z,12.53
2018-03-17T23:18:26.809Z,12.50
2018-03-17T23:20:55.114Z,10.30
2018-03-17T23:23:24.722Z,11.37
2018-03-17T23:25:53.026Z,11.80
2018-03-17T23:28:21.487Z,13.10
2018-03-17T23:30:49.742Z,11.47
2018-03-17T23:33:18.123Z,13.27
2018-03-17T23:35:46.351Z,12.27
2018-03-17T23:38:14.689Z,12.07
2018-03-17T23:40:43.042Z,12.93
2018-03-17T23:43:11.338Z,12.70
2018-03-17T23:45:39.569Z,11.93
2018-03-17T23:48:07.954Z,13.27
2018-03-17T23:50:36.216Z,13.97
2018-03-17T23:53:04.462Z,14.07
2018-03-17T23:55:32.739Z,9.67
2018-03-17T23:58:01.761Z,13.00
